createdAt,value
2019-05-14T00:01:18.630Z,103559.53
2019-05-14T00:03:45.562Z,103558.64
2019-05-14T00:06:12.570Z,103560.89
2019-05-14T00:08:41.637Z,103564.58
2019-05-14T00:11:08.379Z,103555.56
2019-05-14T00:13:35.464Z,103561.86
2019-05-14T00:16:02.524Z,103568.95
2019-05-14T00:18:31.442Z,103568.83
2019-05-14T00:20:58.390Z,103564.92
2019-05-14T00:23:25.340Z,103556.81
2019-05-14T00:25:52.474Z,103562.20
2019-05-14T00:28:21.100Z,103561.83
2019-05-14T00:30:48.258Z,103564.86
2019-05-14T00:33:15.211Z,103567.35
2019-05-14T00:35:42.181Z,103568.80
2019-05-14T00:38:09.160Z,103564.63
2019-05-14T00:40:36.134Z,103562.80
2019-05-14T00:43:03.245Z,103570.52
2019-05-14T00:45:31.329Z,103568.44
2019-05-14T00:47:58.486Z,103564.53
2019-05-14T00:50:26.696Z,103559.83
2019-05-14T00:52:53.817Z,103573.70
2019-05-14T00:55:22.336Z,103574.22
2019-05-14T00:57:51.874Z,103567.95
2019-05-14T01:00:18.571Z,103573.97
2019-05-14T01:02:45.558Z,103572.53
2019-05-14T01:05:12.816Z,103571.89
2019-05-14T01:07:42.076Z,103574.52
2019-05-14T01:10:11.457Z,103563.40
2019-05-14T01:12:37.919Z,103570.20
2019-05-14T01:15:10.209Z,103564.84
2019-05-14T01:17:34.016Z,103561.58
2019-05-14T01:20:03.062Z,103557.92
2019-05-14T01:22:31.636Z,103549.42
2019-05-14T01:24:58.827Z,103551.23
2019-05-14T01:27:25.807Z,103552.28
2019-05-14T01:29:52.775Z,103544.18
2019-05-14T01:32:22.103Z,103547.33
2019-05-14T01:34:49.304Z,103547.85
2019-05-14T01:37:16.286Z,103548.77
2019-05-14T01:39:43.227Z,103544.07
2019-05-14T01:42:12.529Z,103544.34
2019-05-14T01:44:41.272Z,103541.85
2019-05-14T01:47:08.140Z,103534.14
2019-05-14T01:49:35.072Z,103532.45
2019-05-14T01:52:02.055Z,103531.92
2019-05-14T01:54:31.515Z,103532.71
2019-05-14T01:56:57.918Z,103532.45
2019-05-14T01:59:26.028Z,103527.75
2019-05-14T02:01:53.009Z,103528.92
2019-05-14T02:04:21.974Z,103534.54
2019-05-14T02:06:48.849Z,103536.24
2019-05-14T02:09:15.799Z,103531.66
2019-05-14T02:11:42.771Z,103535.84
2019-05-14T02:14:11.599Z,103530.72
2019-05-14T02:16:38.599Z,103532.54
2019-05-14T02:19:05.612Z,103527.97
2019-05-14T02:21:32.596Z,103539.20
2019-05-14T02:24:01.835Z,103535.80
2019-05-14T02:26:28.648Z,103530.18
2019-05-14T02:28:55.741Z,103532.13
2019-05-14T02:31:22.826Z,103531.34
2019-05-14T02:33:50.591Z,103527.42
2019-05-14T02:36:19.501Z,103525.33
2019-05-14T02:38:49.373Z,103527.67
2019-05-14T02:41:19.261Z,103531.84
2019-05-14T02:43:44.553Z,103527.92
2019-05-14T02:46:16.970Z,103524.66
2019-05-14T02:48:40.543Z,103529.09
2019-05-14T02:51:10.465Z,103529.20
2019-05-14T02:53:39.118Z,103530.25
2019-05-14T02:56:05.634Z,103523.31
2019-05-14T02:58:32.600Z,103527.87
2019-05-14T03:01:00.740Z,103530.88
2019-05-14T03:03:29.905Z,103525.13
2019-05-14T03:06:00.023Z,103527.61
2019-05-14T03:08:25.856Z,103534.89
2019-05-14T03:10:52.806Z,103542.55
2019-05-14T03:13:20.402Z,103544.11
2019-05-14T03:15:49.837Z,103541.87
2019-05-14T03:18:19.547Z,103538.56
2019-05-14T03:20:50.158Z,103532.93
2019-05-14T03:23:19.602Z,103532.02
2019-05-14T03:25:45.057Z,103523.80
2019-05-14T03:28:12.123Z,103524.85
2019-05-14T03:30:42.398Z,103517.94
2019-05-14T03:33:13.169Z,103515.86
2019-05-14T03:35:48.130Z,103513.64
2019-05-14T03:38:09.222Z,103510.75
2019-05-14T03:40:34.897Z,103514.01
2019-05-14T03:43:01.940Z,103514.13
2019-05-14T03:45:30.385Z,103510.58
2019-05-14T03:47:58.877Z,103506.50
2019-05-14T03:50:29.478Z,103505.67
2019-05-14T03:52:55.112Z,103512.39
2019-05-14T03:55:22.425Z,103508.95
2019-05-14T03:57:50.179Z,103515.02
2019-05-14T04:00:21.749Z,103520.86
2019-05-14T04:02:51.577Z,103511.84
2019-05-14T04:05:22.589Z,103513.14
2019-05-14T04:07:50.209Z,103511.70
2019-05-14T04:10:19.416Z,103510.93
2019-05-14T04:12:49.313Z,103515.64
2019-05-14T04:15:19.229Z,103513.57
2019-05-14T04:17:50.206Z,103511.88
2019-05-14T04:20:19.454Z,103505.39
2019-05-14T04:22:49.989Z,103506.62
2019-05-14T04:25:19.486Z,103504.31
2019-05-14T04:27:49.395Z,103507.87
2019-05-14T04:30:23.587Z,103506.59
2019-05-14T04:32:50.481Z,103505.45
2019-05-14T04:35:19.943Z,103504.17
2019-05-14T04:37:49.362Z,103508.97
2019-05-14T04:40:15.092Z,103502.17
2019-05-14T04:42:42.080Z,103512.50
2019-05-14T04:45:11.049Z,103516.96
2019-05-14T04:47:42.131Z,103520.89
2019-05-14T04:50:10.560Z,103523.39
2019-05-14T04:52:40.327Z,103519.36
2019-05-14T04:55:09.835Z,103522.13
2019-05-14T04:57:38.907Z,103516.15
2019-05-14T05:00:05.234Z,103515.39
2019-05-14T05:02:32.383Z,103516.45
2019-05-14T05:04:59.638Z,103511.81
2019-05-14T05:07:29.518Z,103510.66
2019-05-14T05:09:55.714Z,103511.84
2019-05-14T05:12:22.685Z,103511.87
2019-05-14T05:14:49.681Z,103513.71
2019-05-14T05:17:19.618Z,103510.85
2019-05-14T05:19:46.236Z,103507.33
2019-05-14T05:22:13.439Z,103504.22
2019-05-14T05:24:40.447Z,103498.70
2019-05-14T05:27:09.465Z,103494.88
2019-05-14T05:29:39.029Z,103496.01
2019-05-14T05:32:05.450Z,103489.39
2019-05-14T05:34:32.379Z,103487.58
2019-05-14T05:36:59.469Z,103486.67
2019-05-14T05:39:28.281Z,103477.00
2019-05-14T05:42:13.738Z,103479.31
2019-05-14T05:44:40.843Z,103478.95
2019-05-14T05:47:09.160Z,103474.88
2019-05-14T05:49:38.669Z,103467.28
2019-05-14T05:52:08.324Z,103472.66
2019-05-14T05:54:38.214Z,103472.65
2019-05-14T05:57:05.132Z,103479.72
2019-05-14T05:59:32.102Z,103482.34
2019-05-14T06:01:59.111Z,103473.55
2019-05-14T06:04:28.761Z,103474.91
2019-05-14T06:06:54.923Z,103466.80
2019-05-14T06:09:22.161Z,103455.86
2019-05-14T06:11:49.114Z,103466.70
2019-05-14T06:14:18.474Z,103458.97
2019-05-14T06:16:44.959Z,103456.48
2019-05-14T06:19:12.190Z,103453.89
2019-05-14T06:21:39.861Z,103444.50
2019-05-14T06:24:09.045Z,103445.52
2019-05-14T06:26:35.807Z,103447.97
2019-05-14T06:29:02.788Z,103443.94
2019-05-14T06:31:29.830Z,103434.84
2019-05-14T06:33:59.189Z,103432.53
2019-05-14T06:36:25.675Z,103428.41
2019-05-14T06:38:52.644Z,103431.54
2019-05-14T06:41:19.724Z,103429.73
2019-05-14T06:43:48.736Z,103425.30
2019-05-14T06:46:15.596Z,103417.13
2019-05-14T06:48:42.550Z,103421.19
2019-05-14T06:51:09.763Z,103413.22
2019-05-14T06:53:39.104Z,103413.23
2019-05-14T06:56:08.008Z,103421.32
2019-05-14T06:58:34.611Z,103418.19
2019-05-14T07:01:01.673Z,103413.53
2019-05-14T07:03:28.597Z,103420.62
2019-05-14T07:05:55.559Z,103422.84
2019-05-14T07:08:22.561Z,103419.55
2019-05-14T07:10:49.538Z,103425.21
2019-05-14T07:13:18.722Z,103419.75
2019-05-14T07:15:45.408Z,103417.92
2019-05-14T07:18:14.159Z,103417.55
2019-05-14T07:20:41.119Z,103409.33
2019-05-14T07:23:08.344Z,103402.32
2019-05-14T07:25:35.347Z,103405.45
2019-05-14T07:28:48.873Z,103408.56
2019-05-14T07:31:18.398Z,103409.27
2019-05-14T07:33:44.542Z,103409.94
2019-05-14T07:36:11.528Z,103413.68
2019-05-14T07:38:39.165Z,103411.36
2019-05-14T07:41:08.957Z,103410.85
2019-05-14T07:44:12.356Z,103407.50
2019-05-14T07:46:39.306Z,103406.97
2019-05-14T07:49:10.910Z,103408.17
2019-05-14T07:51:35.116Z,103411.69
2019-05-14T07:54:20.533Z,103409.15
2019-05-14T07:56:50.898Z,103406.20
2019-05-14T07:59:18.078Z,103405.73
2019-05-14T08:01:45.338Z,103412.63
2019-05-14T08:04:12.340Z,103401.94
2019-05-14T08:06:39.552Z,103407.76
2019-05-14T08:09:08.645Z,103415.41
2019-05-14T08:11:38.755Z,103421.41
2019-05-14T08:14:05.742Z,103413.31
2019-05-14T08:16:32.844Z,103413.09
2019-05-14T08:19:00.263Z,103409.27
2019-05-14T08:21:28.357Z,103409.03
2019-05-14T08:23:55.956Z,103411.77
2019-05-14T08:26:22.908Z,103405.89
2019-05-14T08:28:49.863Z,103407.35
2019-05-14T08:31:18.630Z,103400.62
2019-05-14T08:33:49.348Z,103400.43
2019-05-14T08:36:18.391Z,103404.80
2019-05-14T08:38:45.559Z,103400.62
2019-05-14T08:41:13.542Z,103396.36
2019-05-14T08:43:40.583Z,103396.44
2019-05-14T08:46:08.309Z,103405.13
2019-05-14T08:48:35.413Z,103402.03
2019-05-14T08:51:02.481Z,103393.29
2019-05-14T08:53:29.451Z,103388.20
2019-05-14T08:55:58.643Z,103389.96
2019-05-14T08:58:25.486Z,103384.95
2019-05-14T09:00:53.053Z,103376.59
2019-05-14T09:03:20.174Z,103381.91
2019-05-14T09:05:49.193Z,103374.30
2019-05-14T09:08:19.171Z,103368.65
2019-05-14T09:11:04.802Z,103362.48
2019-05-14T09:13:31.760Z,103350.84
2019-05-14T09:15:58.713Z,103341.33
2019-05-14T09:18:25.712Z,103344.98
2019-05-14T09:20:52.660Z,103336.89
2019-05-14T09:23:19.623Z,103342.02
2019-05-14T09:25:50.470Z,103336.41
2019-05-14T09:28:18.681Z,103330.40
2019-05-14T09:30:44.474Z,103332.72
2019-05-14T09:33:13.118Z,103327.59
2019-05-14T09:35:40.109Z,103311.16
2019-05-14T09:38:08.702Z,103310.52
2019-05-14T09:40:35.924Z,103317.65
2019-05-14T09:43:02.916Z,103309.09
2019-05-14T09:45:29.845Z,103305.20
2019-05-14T09:47:58.678Z,103296.55
2019-05-14T09:50:25.909Z,103289.81
2019-05-14T09:52:52.866Z,103288.01
2019-05-14T09:55:19.960Z,103296.41
2019-05-14T09:57:58.545Z,103298.90
2019-05-14T10:00:25.321Z,103301.37
2019-05-14T10:03:13.975Z,103299.86
2019-05-14T10:05:40.961Z,103299.50
2019-05-14T10:08:08.958Z,103298.92
2019-05-14T10:10:36.215Z,103285.50
2019-05-14T10:13:03.193Z,103274.24
2019-05-14T10:15:30.175Z,103282.70
2019-05-14T10:18:00.227Z,103288.23
2019-05-14T10:20:40.940Z,103279.04
2019-05-14T10:23:02.883Z,103292.82
2019-05-14T10:25:29.965Z,103285.72
2019-05-14T10:27:59.090Z,103289.22
2019-05-14T10:30:28.427Z,103286.81
2019-05-14T10:32:55.307Z,103282.59
2019-05-14T10:35:22.315Z,103279.02
2019-05-14T10:37:49.293Z,103270.87
2019-05-14T10:40:18.519Z,103258.91
2019-05-14T10:42:45.559Z,103252.38
2019-05-14T10:45:13.318Z,103249.28
2019-05-14T10:47:40.488Z,103231.92
2019-05-14T10:50:13.357Z,103236.49
2019-05-14T10:52:39.315Z,103228.98
2019-05-14T10:55:24.381Z,103221.91
2019-05-14T10:57:54.299Z,103228.19
2019-05-14T11:00:20.626Z,103229.87
2019-05-14T11:02:49.228Z,103237.84
2019-05-14T11:05:18.551Z,103229.75
2019-05-14T11:07:45.132Z,103217.42
2019-05-14T11:10:12.348Z,103221.58
2019-05-14T11:12:39.810Z,103220.51
2019-05-14T11:15:07.159Z,103211.47
2019-05-14T11:17:34.134Z,103201.03
2019-05-14T11:20:01.205Z,103202.20
2019-05-14T11:22:48.895Z,103197.62
2019-05-14T11:25:15.540Z,103203.32
2019-05-14T11:27:42.490Z,103197.58
2019-05-14T11:30:09.982Z,103192.47
2019-05-14T11:32:38.531Z,103196.37
2019-05-14T11:35:12.876Z,103192.30
2019-05-14T11:37:41.118Z,103189.27
2019-05-14T11:40:08.758Z,103187.44
2019-05-14T11:42:38.658Z,103184.55
2019-05-14T11:45:05.557Z,103170.55
2019-05-14T11:47:32.586Z,103164.14
2019-05-14T11:49:59.590Z,103162.19
2019-05-14T11:52:28.620Z,103148.08
2019-05-14T11:54:55.473Z,103148.92
2019-05-14T11:57:22.547Z,103144.69
2019-05-14T11:59:49.679Z,103136.02
2019-05-14T12:02:18.908Z,103118.14
2019-05-14T12:04:46.738Z,103124.45
2019-05-14T12:07:13.677Z,103125.69
2019-05-14T12:09:42.775Z,103126.19
2019-05-14T12:12:12.179Z,103115.54
2019-05-14T12:14:38.620Z,103125.43
2019-05-14T12:17:05.667Z,103117.07
2019-05-14T12:19:39.393Z,103109.47
2019-05-14T12:22:24.282Z,103110.14
2019-05-14T12:24:51.259Z,103105.19
2019-05-14T12:27:25.626Z,103112.72
2019-05-14T12:29:52.670Z,103111.06
2019-05-14T12:32:21.454Z,103103.20
2019-05-14T12:34:48.936Z,103091.99
2019-05-14T12:37:18.582Z,103091.88
2019-05-14T12:39:45.120Z,103085.14
2019-05-14T12:42:12.118Z,103085.20
2019-05-14T12:44:40.925Z,103080.67
2019-05-14T12:47:09.460Z,103078.86
2019-05-14T12:49:38.794Z,103079.16
2019-05-14T12:52:21.145Z,103077.51
2019-05-14T12:54:34.520Z,103081.52
2019-05-14T12:57:01.581Z,103076.19
2019-05-14T12:59:28.707Z,103083.02
2019-05-14T13:01:58.491Z,103071.54
2019-05-14T13:04:24.582Z,103070.05
2019-05-14T13:06:51.611Z,103063.02
2019-05-14T13:09:21.605Z,103069.83
2019-05-14T13:11:50.185Z,103072.13
2019-05-14T13:14:18.305Z,103071.64
2019-05-14T13:16:45.444Z,103063.55
2019-05-14T13:19:49.087Z,103068.42
2019-05-14T13:22:19.068Z,103059.84
2019-05-14T13:24:44.942Z,103045.88
2019-05-14T13:27:11.911Z,103047.78
2019-05-14T13:29:38.982Z,103037.64
2019-05-14T13:32:11.966Z,103043.02
2019-05-14T13:34:35.910Z,103032.39
2019-05-14T13:37:02.889Z,103032.23
2019-05-14T13:39:29.872Z,103028.05
2019-05-14T13:41:58.930Z,103021.23
2019-05-14T13:44:26.125Z,103026.11
2019-05-14T13:46:59.805Z,103032.58
2019-05-14T13:49:29.240Z,103022.39
2019-05-14T13:52:02.789Z,103016.24
2019-05-14T13:54:32.069Z,103015.92
2019-05-14T13:56:59.188Z,103006.37
2019-05-14T13:59:26.236Z,103000.69
2019-05-14T14:01:54.977Z,102985.66
2019-05-14T14:04:22.164Z,102989.29
2019-05-14T14:06:49.202Z,102995.15
2019-05-14T14:09:16.311Z,102985.56
2019-05-14T14:11:43.303Z,102988.19
2019-05-14T14:14:10.317Z,102991.05
2019-05-14T14:17:02.049Z,102987.59
2019-05-14T14:19:31.201Z,102987.02
2019-05-14T14:21:59.071Z,102986.56
2019-05-14T14:24:28.837Z,102982.84
2019-05-14T14:26:55.188Z,102973.69
2019-05-14T14:31:48.819Z,102970.35
2019-05-14T14:34:18.100Z,102958.92
2019-05-14T14:36:44.804Z,102955.16
2019-05-14T14:39:11.766Z,102953.87
2019-05-14T14:41:38.897Z,102950.62
2019-05-14T14:44:08.586Z,102956.11
2019-05-14T14:46:42.028Z,102945.20
2019-05-14T14:49:10.776Z,102953.28
2019-05-14T14:51:43.964Z,102939.73
2019-05-14T14:54:14.402Z,102938.52
2019-05-14T14:56:37.926Z,102935.35
2019-05-14T14:59:18.967Z,102916.97
2019-05-14T15:01:46.125Z,102914.44
2019-05-14T15:04:14.113Z,102917.86
2019-05-14T15:06:43.020Z,102917.64
2019-05-14T15:09:10.018Z,102908.64
2019-05-14T15:11:39.620Z,102908.45
2019-05-14T15:14:08.281Z,102905.75
2019-05-14T15:16:35.002Z,102906.22
2019-05-14T15:19:04.146Z,102906.66
2019-05-14T15:21:31.289Z,102904.73
2019-05-14T15:24:07.306Z,102900.02
2019-05-14T15:26:28.873Z,102897.95
2019-05-14T15:28:58.250Z,102895.72
2019-05-14T15:31:24.873Z,102892.64
2019-05-14T15:33:54.005Z,102889.52
2019-05-14T15:36:20.994Z,102889.93
2019-05-14T15:38:48.595Z,102894.09
2019-05-14T15:41:20.145Z,102894.81
2019-05-14T15:43:46.810Z,102892.80
2019-05-14T15:46:13.794Z,102890.06
2019-05-14T15:48:40.910Z,102886.49
2019-05-14T15:51:11.424Z,102881.27
2019-05-14T15:53:38.658Z,102882.30
2019-05-14T15:56:07.910Z,102876.80
2019-05-14T15:58:34.637Z,102870.78
2019-05-14T16:01:01.674Z,102864.73
2019-05-14T16:03:28.842Z,102870.78
2019-05-14T16:06:01.691Z,102868.98
2019-05-14T16:08:52.955Z,102869.42
2019-05-14T16:11:21.202Z,102862.09
2019-05-14T16:13:49.412Z,102861.59
2019-05-14T16:16:19.446Z,102853.28
2019-05-14T16:18:47.867Z,102850.79
2019-05-14T16:21:14.577Z,102861.14
2019-05-14T16:23:42.653Z,102861.14
2019-05-14T16:26:09.621Z,102855.84
2019-05-14T16:28:39.133Z,102852.40
2019-05-14T16:31:05.609Z,102850.20
2019-05-14T16:33:32.568Z,102844.33
2019-05-14T16:35:59.614Z,102856.70
2019-05-14T16:38:28.529Z,102852.20
2019-05-14T16:40:55.648Z,102863.63
2019-05-14T16:43:22.663Z,102851.61
2019-05-14T16:45:49.633Z,102849.16
2019-05-14T16:48:18.249Z,102843.03
2019-05-14T16:50:45.417Z,102848.06
2019-05-14T16:53:12.396Z,102851.20
2019-05-14T16:55:39.366Z,102855.04
2019-05-14T16:58:08.846Z,102851.98
2019-05-14T17:00:35.256Z,102845.79
2019-05-14T17:03:10.183Z,102849.67
2019-05-14T17:05:38.190Z,102853.47
2019-05-14T17:08:05.407Z,102849.83
2019-05-14T17:10:38.775Z,102861.86
2019-05-14T17:13:08.892Z,102854.66
2019-05-14T17:15:34.925Z,102856.69
2019-05-14T17:18:02.052Z,102848.46
2019-05-14T17:20:29.062Z,102849.72
2019-05-14T17:22:56.038Z,102853.20
2019-05-14T17:25:27.178Z,102852.53
2019-05-14T17:27:52.090Z,102852.61
2019-05-14T17:30:19.171Z,102855.66
2019-05-14T17:32:46.198Z,102850.26
2019-05-14T17:35:13.268Z,102848.84
2019-05-14T17:37:40.361Z,102848.80
2019-05-14T17:40:09.791Z,102850.67
2019-05-14T17:42:39.312Z,102852.75
2019-05-14T17:45:09.096Z,102846.57
2019-05-14T17:47:38.823Z,102841.77
2019-05-14T17:50:18.248Z,102838.37
2019-05-14T17:52:45.391Z,102838.92
2019-05-14T17:55:12.892Z,102840.15
2019-05-14T17:57:46.029Z,102840.41
2019-05-14T18:00:09.864Z,102833.48
2019-05-14T18:02:36.935Z,102832.58
2019-05-14T18:05:04.920Z,102832.09
2019-05-14T18:07:33.748Z,102830.00
2019-05-14T18:10:00.819Z,102833.80
2019-05-14T18:12:30.474Z,102825.38
2019-05-14T18:14:58.800Z,102831.01
2019-05-14T18:17:25.629Z,102836.56
2019-05-14T18:19:52.550Z,102829.61
2019-05-14T18:22:19.659Z,102828.27
2019-05-14T18:25:23.127Z,102831.80
2019-05-14T18:27:50.262Z,102830.02
2019-05-14T18:30:18.303Z,102828.12
2019-05-14T18:32:45.417Z,102826.75
2019-05-14T18:35:12.548Z,102830.02
2019-05-14T18:37:39.697Z,102821.71
2019-05-14T18:40:28.066Z,102823.88
2019-05-14T18:42:55.033Z,102826.37
2019-05-14T18:45:22.005Z,102827.47
2019-05-14T18:47:49.013Z,102827.58
2019-05-14T18:50:16.326Z,102820.64
2019-05-14T18:52:43.294Z,102827.37
2019-05-14T18:55:10.637Z,102823.30
2019-05-14T18:57:38.226Z,102829.59
2019-05-14T19:00:07.158Z,102831.02
2019-05-14T19:02:34.286Z,102829.30
2019-05-14T19:05:01.296Z,102826.47
2019-05-14T19:07:28.893Z,102832.12
2019-05-14T19:09:58.489Z,102828.87
2019-05-14T19:12:43.208Z,102834.68
2019-05-14T19:15:10.415Z,102830.44
2019-05-14T19:17:38.651Z,102829.33
2019-05-14T19:20:08.311Z,102827.63
2019-05-14T19:22:42.602Z,102823.72
2019-05-14T19:25:09.590Z,102823.79
2019-05-14T19:27:38.075Z,102824.54
2019-05-14T19:30:05.638Z,102835.16
2019-05-14T19:32:34.524Z,102836.11
2019-05-14T19:35:01.927Z,102832.27
2019-05-14T19:37:29.150Z,102833.98
2019-05-14T19:39:58.585Z,102831.53
2019-05-14T19:42:25.272Z,102831.16
2019-05-14T19:44:52.248Z,102835.16
2019-05-14T19:47:19.354Z,102840.06
2019-05-14T19:49:48.479Z,102840.28
2019-05-14T19:52:15.279Z,102844.94
2019-05-14T19:54:42.323Z,102844.91
2019-05-14T19:57:13.777Z,102843.37
2019-05-14T19:59:40.920Z,102843.23
2019-05-14T20:02:09.490Z,102841.17
2019-05-14T20:04:36.797Z,102854.11
2019-05-14T20:07:04.011Z,102844.98
2019-05-14T20:09:31.092Z,102843.66
2019-05-14T20:11:58.278Z,102845.88
2019-05-14T20:15:24.170Z,102856.39
2019-05-14T20:17:52.287Z,102850.33
2019-05-14T20:20:19.467Z,102852.84
2019-05-14T20:23:04.777Z,102848.08
2019-05-14T20:25:31.879Z,102852.80
2019-05-14T20:27:58.959Z,102850.31
2019-05-14T20:30:29.506Z,102849.64
2019-05-14T20:32:59.077Z,102849.09
2019-05-14T20:35:34.055Z,102845.74
2019-05-14T20:37:54.598Z,102845.52
2019-05-14T20:40:22.564Z,102847.50
2019-05-14T20:42:49.892Z,102845.03
2019-05-14T20:45:19.117Z,102847.51
2019-05-14T20:47:47.999Z,102844.72
2019-05-14T20:50:15.055Z,102843.63
2019-05-14T20:52:59.197Z,102844.24
2019-05-14T20:55:28.517Z,102842.28
2019-05-14T20:57:55.151Z,102839.89
2019-05-14T21:00:22.212Z,102832.84
2019-05-14T21:02:49.250Z,102831.95
2019-05-14T21:05:18.673Z,102830.66
2019-05-14T21:07:45.285Z,102835.92
2019-05-14T21:10:12.694Z,102840.56
2019-05-14T21:12:39.731Z,102842.07
2019-05-14T21:15:08.953Z,102842.98
2019-05-14T21:17:36.314Z,102838.93
2019-05-14T21:20:03.697Z,102837.92
2019-05-14T21:22:31.839Z,102836.92
2019-05-14T21:24:59.097Z,102838.64
2019-05-14T21:27:38.621Z,102839.55
2019-05-14T21:29:55.001Z,102837.94
2019-05-14T21:32:22.122Z,102840.15
2019-05-14T21:35:22.705Z,102836.31
2019-05-14T21:37:51.643Z,102841.61
2019-05-14T21:40:18.770Z,102840.91
2019-05-14T21:42:45.936Z,102838.38
2019-05-14T21:45:14.762Z,102835.34
2019-05-14T21:47:41.816Z,102835.23
2019-05-14T21:50:09.227Z,102843.08
2019-05-14T21:52:39.212Z,102837.42
2019-05-14T21:55:06.010Z,102834.38
2019-05-14T21:57:35.108Z,102833.35
2019-05-14T22:00:02.139Z,102833.33
2019-05-14T22:02:30.514Z,102830.80
2019-05-14T22:04:58.238Z,102826.36
2019-05-14T22:07:26.731Z,102825.34
2019-05-14T22:09:53.863Z,102822.01
2019-05-14T22:12:20.873Z,102820.48
2019-05-14T22:14:48.232Z,102816.43
2019-05-14T22:17:15.393Z,102818.83
2019-05-14T22:19:42.480Z,102816.80
2019-05-14T22:22:09.523Z,102823.53
2019-05-14T22:24:38.365Z,102824.52
2019-05-14T22:27:05.512Z,102817.66
2019-05-14T22:29:34.464Z,102817.44
2019-05-14T22:32:01.463Z,102818.92
2019-05-14T22:34:28.590Z,102815.88
2019-05-14T22:36:57.926Z,102821.07
2019-05-14T22:39:24.540Z,102816.70
2019-05-14T22:41:51.512Z,102810.72
2019-05-14T22:44:37.022Z,102813.91
2019-05-14T22:47:04.115Z,102813.29
2019-05-14T22:49:31.170Z,102808.75
2019-05-14T22:51:58.868Z,102804.49
2019-05-14T22:54:26.120Z,102806.60
2019-05-14T22:56:53.150Z,102804.56
2019-05-14T22:59:20.585Z,102810.37
2019-05-14T23:01:48.126Z,102804.01
2019-05-14T23:04:18.109Z,102804.19
2019-05-14T23:06:45.290Z,102797.42
2019-05-14T23:09:12.283Z,102801.52
2019-05-14T23:11:39.366Z,102797.38
2019-05-14T23:14:06.347Z,102799.55
2019-05-14T23:16:38.104Z,102801.94
2019-05-14T23:19:20.933Z,102800.41
2019-05-14T23:21:48.426Z,102802.67
2019-05-14T23:24:15.583Z,102802.45
2019-05-14T23:26:42.687Z,102810.02
2019-05-14T23:29:09.723Z,102808.49
2019-05-14T23:31:38.709Z,102809.06
2019-05-14T23:34:05.825Z,102806.84
2019-05-14T23:36:32.869Z,102803.44
2019-05-14T23:38:59.886Z,102803.44
2019-05-14T23:41:28.626Z,102797.19
2019-05-14T23:43:55.835Z,102796.05
2019-05-14T23:46:22.954Z,102793.38
2019-05-14T23:48:49.945Z,102789.23
2019-05-14T23:51:18.178Z,102790.95
2019-05-14T23:53:45.471Z,102787.59
2019-05-14T23:56:12.511Z,102781.23
2019-05-14T23:58:54.027Z,102777.37
